Mobile Regional Airport Mobile US
ICAO: KMOB
IATA: MOB
Category: Large
Scheduled Services: Yes

Elevation: 219 ft
TransAlt. 18000 ft.

Airport Communications:
APP/DEP:118.5
ATIS:124.75
CLNC DEL:119.85
CTAF:118.3
GND:121.9
ARNG OPS:41.05
AIR:34.5
ANNISTON RDO:122.2
TWR:118.3
UNICOM:122.95

KMOB Zoom In..

If you have problems with the map follow the link
https://www.worldairports.se/pages/airport.php?
ICAO=KMOB

Runways:

(A) RW 14 length 8502 ft width 150 ft
ILS 109.90 / hdg 145

(B) RW 18 length 4376 ft width 150 ft
---- / hdg 181

(C) RW 32 length 8502 ft width 150 ft
ILS 111.50 / hdg 325

(D) RW 36 length 4376 ft width 150 ft
---- / hdg 1

Location; KMOB
Day. 16 / Time. 10.56 Zulu
* Altimeter: 30.24
* Temperature: 02° c. 35.6°f.
* Wind from: 340° Speed 03 kn.
Dewpoint: 00° c.
Visibility: 10 Statute Miles.
Clouds: Clear (automated report).

KMOB 161056Z AUTO 34003KT 10SM CLR 02/00 A3024 RMK AO2 SLP240 T00170000


Wind From 340°
Speed 03 kn.

 
 
jpsmedia.com for Web Design worldairports.se 2018   terms of use